Time;durP1;ratioP1;P1;durP2;ratioP2;P2;SDS_P1;SDS_P2;PMS_P1;PMS_P2;Temp;Humidity;BMP_temperature;BMP_pressure;BME280_temperature;BME280_humidity;BME280_pressure;Samples;Min_cycle;Max_cycle;Signal;HPM_P1;HPM_P2
2023/09/24 00:02:14;;;;;;;7.78;5.57;;;;;;;15.04;45.05;100748.53;4806509;29;20145;-75
2023/09/24 00:04:44;;;;;;;8.90;4.93;;;;;;;14.98;45.27;100741.63;4806755;29;21453;-72
2023/09/24 00:07:10;;;;;;;8.55;5.15;;;;;;;15.00;45.35;100752.97;4807410;29;20058;-75
2023/09/24 00:09:37;;;;;;;8.05;4.78;;;;;;;14.94;45.24;100739.06;4796632;29;20530;-73
2023/09/24 00:12:04;;;;;;;7.70;5.03;;;;;;;14.90;45.17;100731.25;4795740;29;20108;-72
2023/09/24 00:14:30;;;;;;;9.50;5.28;;;;;;;14.99;45.45;100751.22;4807237;29;20114;-72
2023/09/24 00:16:57;;;;;;;12.20;5.40;;;;;;;15.01;45.18;100745.94;4804587;29;20054;-75
2023/09/24 00:19:27;;;;;;;10.63;5.38;;;;;;;14.83;45.17;100723.47;4810113;29;20042;-73
2023/09/24 00:21:54;;;;;;;10.00;5.15;;;;;;;14.84;45.51;100739.16;4806661;29;20046;-74
2023/09/24 00:24:20;;;;;;;8.85;4.85;;;;;;;14.78;45.35;100725.28;4804660;29;20038;-74
2023/09/24 00:26:47;;;;;;;9.98;5.53;;;;;;;14.75;45.91;100734.91;4805882;29;20541;-74
2023/09/24 00:29:14;;;;;;;10.82;5.10;;;;;;;14.81;45.88;100743.59;4822014;29;20050;-72
2023/09/24 00:31:41;;;;;;;10.43;5.65;;;;;;;14.65;46.19;100735.88;4804572;29;20368;-73
2023/09/24 00:34:08;;;;;;;13.57;5.68;;;;;;;14.56;46.43;100738.56;4809691;29;20111;-72
2023/09/24 00:36:35;;;;;;;12.10;5.65;;;;;;;14.41;46.88;100724.75;4804263;29;20058;-71
2023/09/24 00:39:02;;;;;;;17.88;5.85;;;;;;;14.41;47.13;100731.75;4804360;29;20066;-70
2023/09/24 00:41:28;;;;;;;8.20;5.40;;;;;;;14.35;47.22;100722.19;4791454;29;20512;-72
2023/09/24 00:43:57;;;;;;;12.98;6.05;;;;;;;14.39;47.45;100734.38;4808417;29;20050;-73
2023/09/24 00:46:24;;;;;;;12.73;6.22;;;;;;;14.43;47.54;100738.72;4798927;29;20137;-73
2023/09/24 00:48:52;;;;;;;11.80;5.40;;;;;;;14.46;47.60;100732.56;4799189;29;20065;-73
2023/09/24 00:51:23;;;;;;;11.50;5.68;;;;;;;14.44;47.66;100727.34;4793389;29;20599;-74
2023/09/24 00:53:54;;;;;;;11.20;5.43;;;;;;;14.59;47.64;100739.41;4808106;29;20046;-73
2023/09/24 00:56:21;;;;;;;12.43;5.30;;;;;;;14.60;47.71;100748.13;4796923;29;20300;-73
2023/09/24 00:58:50;;;;;;;11.82;5.43;;;;;;;14.50;47.83;100725.53;4809099;29;20107;-71
2023/09/24 01:01:24;;;;;;;8.55;5.68;;;;;;;14.64;47.69;100744.63;4809089;29;20146;-72
2023/09/24 01:03:51;;;;;;;12.43;5.40;;;;;;;14.66;47.36;100745.47;4807386;29;20691;-74
2023/09/24 01:06:17;;;;;;;10.38;5.00;;;;;;;14.70;47.71;100741.94;4807452;29;20050;-70
2023/09/24 01:08:44;;;;;;;11.45;5.30;;;;;;;14.66;47.59;100732.38;4781233;29;20047;-73
2023/09/24 01:11:09;;;;;;;11.93;5.57;;;;;;;14.71;47.31;100738.44;4793706;29;20520;-72
2023/09/24 01:13:46;;;;;;;14.35;5.13;;;;;;;14.63;47.31;100719.31;4792875;29;20043;-72
2023/09/24 01:16:16;;;;;;;12.27;5.57;;;;;;;14.76;47.42;100741.03;4809199;29;20078;-73
2023/09/24 01:18:44;;;;;;;10.52;5.03;;;;;;;14.61;47.45;100705.34;4793082;29;20050;-73
2023/09/24 01:21:15;;;;;;;12.07;4.65;;;;;;;14.78;47.47;100738.38;4824205;29;20057;-73
2023/09/24 01:23:45;;;;;;;10.77;5.50;;;;;;;14.76;47.50;100728.78;4808696;29;20542;-74
2023/09/24 01:26:13;;;;;;;9.93;5.28;;;;;;;14.71;47.54;100720.09;4794154;29;20047;-74
2023/09/24 01:28:40;;;;;;;9.65;5.40;;;;;;;14.72;47.50;100718.34;4808171;29;20077;-73
2023/09/24 01:31:10;;;;;;;7.47;5.18;;;;;;;14.63;47.64;100705.31;4805816;29;20114;-75
2023/09/24 01:33:38;;;;;;;8.30;4.95;;;;;;;14.60;47.58;100698.38;4808660;29;20443;-72
2023/09/24 01:36:08;;;;;;;7.93;4.88;;;;;;;14.71;47.69;100722.72;4781158;29;21235;-73
2023/09/24 01:38:34;;;;;;;13.48;5.47;;;;;;;14.82;47.87;100734.84;4797795;29;20047;-72
2023/09/24 01:41:03;;;;;;;10.20;5.28;;;;;;;14.79;47.80;100729.63;4809000;29;20057;-73
2023/09/24 01:43:29;;;;;;;7.03;4.55;;;;;;;14.80;47.74;100719.13;4807433;29;20038;-74
2023/09/24 01:45:55;;;;;;;8.10;4.70;;;;;;;14.94;47.70;100739.91;4808384;29;20042;-73
2023/09/24 01:48:21;;;;;;;9.73;5.57;;;;;;;14.91;47.50;100716.38;4808510;29;20173;-74
2023/09/24 01:50:47;;;;;;;9.60;5.07;;;;;;;14.78;47.75;100696.47;4808198;29;20047;-74
2023/09/24 01:53:14;;;;;;;11.57;5.65;;;;;;;14.94;47.64;100718.97;4809454;29;20065;-73
2023/09/24 01:55:40;;;;;;;7.82;4.45;;;;;;;15.04;47.59;100720.59;4796011;29;20049;-72
2023/09/24 01:58:07;;;;;;;9.02;5.28;;;;;;;15.00;47.44;100710.19;4797530;29;20054;-73
2023/09/24 02:00:33;;;;;;;9.38;5.05;;;;;;;15.14;47.34;100725.69;4807942;29;20141;-74
2023/09/24 02:03:05;;;;;;;9.55;4.97;;;;;;;15.07;47.49;100703.94;4807502;29;20137;-73
2023/09/24 02:05:36;;;;;;;6.63;5.03;;;;;;;15.11;47.27;100715.28;4791016;29;20061;-73
2023/09/24 02:08:06;;;;;;;11.57;5.88;;;;;;;15.11;47.21;100710.03;4807949;29;20046;-73
2023/09/24 02:10:33;;;;;;;14.65;5.18;;;;;;;15.15;47.46;100716.94;4808338;29;20141;-73
2023/09/24 02:13:01;;;;;;;9.20;4.90;;;;;;;15.10;47.27;100706.53;4807757;29;20057;-73
2023/09/24 02:15:28;;;;;;;9.07;5.00;;;;;;;15.14;47.46;100709.97;4808295;29;20054;-73
2023/09/24 02:17:55;;;;;;;8.65;5.20;;;;;;;15.17;47.73;100715.19;4792306;29;20593;-74
2023/09/24 02:20:27;;;;;;;6.32;4.95;;;;;;;15.14;47.75;100707.34;4782189;29;20109;-73
2023/09/24 02:22:56;;;;;;;12.98;4.95;;;;;;;15.01;47.70;100681.31;4806490;29;20099;-71
2023/09/24 02:25:29;;;;;;;9.27;5.68;;;;;;;15.24;47.80;100713.31;4811023;29;20070;-73
2023/09/24 02:27:58;;;;;;;15.40;6.75;;;;;;;15.16;47.70;100711.69;4807442;29;20051;-73
2023/09/24 02:30:29;;;;;;;14.27;7.68;;;;;;;15.02;47.75;100700.50;4780433;29;20074;-70
2023/09/24 02:32:57;;;;;;;11.10;6.65;;;;;;;14.94;47.97;100705.00;4798411;29;20046;-73
2023/09/24 02:35:25;;;;;;;10.85;7.13;;;;;;;15.03;48.40;100716.22;4806341;29;20058;-73
2023/09/24 02:37:52;;;;;;;9.45;5.95;;;;;;;14.99;48.19;100721.53;4804093;29;20057;-71
2023/09/24 02:40:29;;;;;;;10.73;5.78;;;;;;;14.92;48.21;100720.72;4805491;29;20470;-72
2023/09/24 02:42:58;;;;;;;12.80;5.78;;;;;;;14.96;48.66;100718.97;4806256;29;20137;-74
2023/09/24 02:45:27;;;;;;;11.05;5.85;;;;;;;14.87;48.50;100707.69;4805511;29;20411;-71
2023/09/24 02:47:54;;;;;;;12.05;6.47;;;;;;;14.86;48.58;100713.81;4807002;29;20043;-71
2023/09/24 02:50:24;;;;;;;11.00;6.35;;;;;;;14.72;49.00;100692.16;4806856;29;20091;-74
2023/09/24 02:52:58;;;;;;;14.13;6.60;;;;;;;14.69;48.71;100689.56;4813125;29;20755;-73
2023/09/24 02:55:28;;;;;;;11.50;6.85;;;;;;;14.73;48.66;100702.63;4806065;29;20577;-72
2023/09/24 02:57:55;;;;;;;10.85;6.57;;;;;;;14.79;49.13;100712.16;4806820;29;20544;-73
2023/09/24 03:00:26;;;;;;;10.68;6.53;;;;;;;14.91;48.72;100725.13;4808886;29;20526;-73
2023/09/24 03:02:58;;;;;;;15.57;7.68;;;;;;;14.95;48.99;100723.31;4806040;29;20046;-71
2023/09/24 03:05:25;;;;;;;13.38;6.85;;;;;;;14.88;49.17;100705.94;4776549;29;20513;-72
2023/09/24 03:07:54;;;;;;;15.15;7.45;;;;;;;14.94;49.03;100715.47;4797161;29;20050;-73
2023/09/24 03:10:21;;;;;;;11.77;6.88;;;;;;;14.82;49.00;100698.16;4806848;29;20538;-72
2023/09/24 03:12:49;;;;;;;13.20;6.50;;;;;;;14.69;48.95;100673.84;4820236;29;20172;-72
2023/09/24 03:15:16;;;;;;;13.75;7.07;;;;;;;15.00;49.17;100724.13;4790591;29;20053;-73
2023/09/24 03:17:46;;;;;;;16.05;7.35;;;;;;;14.77;49.08;100687.75;4806893;29;20050;-72
2023/09/24 03:20:16;;;;;;;14.02;6.70;;;;;;;14.91;49.42;100725.13;4807924;29;20050;-73
2023/09/24 03:22:48;;;;;;;12.15;6.70;;;;;;;14.93;49.34;100737.34;4795517;29;20049;-73
2023/09/24 03:25:17;;;;;;;14.95;6.40;;;;;;;14.93;49.81;100734.72;4795512;29;20050;-70
2023/09/24 03:27:46;;;;;;;13.95;6.82;;;;;;;14.74;49.56;100717.44;4805458;29;20202;-71
2023/09/24 03:30:17;;;;;;;14.57;6.55;;;;;;;14.66;49.70;100721.88;4791397;29;20145;-71
2023/09/24 03:32:46;;;;;;;13.00;6.50;;;;;;;14.71;50.09;100733.19;4778645;29;20462;-72
2023/09/24 03:35:13;;;;;;;10.40;6.03;;;;;;;14.55;50.32;100713.28;4806043;29;20756;-71
2023/09/24 03:37:44;;;;;;;9.27;6.40;;;;;;;14.57;50.53;100712.34;4807403;29;20049;-72
2023/09/24 03:40:12;;;;;;;14.48;7.35;;;;;;;14.83;50.57;100733.97;4807429;29;20567;-72
2023/09/24 03:42:39;;;;;;;12.75;6.65;;;;;;;14.65;50.35;100687.84;4791306;29;20630;-71
2023/09/24 03:45:08;;;;;;;16.85;6.72;;;;;;;14.81;50.33;100725.25;4806516;29;21558;-71
2023/09/24 03:47:34;;;;;;;9.23;6.20;;;;;;;14.61;50.56;100695.72;4791675;29;20059;-72
2023/09/24 03:50:03;;;;;;;10.63;5.80;;;;;;;14.71;50.46;100720.09;4809155;29;20047;-72
2023/09/24 03:52:31;;;;;;;13.75;6.60;;;;;;;14.61;50.69;100707.97;4807749;29;20078;-73
2023/09/24 03:55:02;;;;;;;13.90;6.88;;;;;;;14.67;50.67;100728.88;4780945;29;20051;-73
2023/09/24 03:57:31;;;;;;;16.65;6.40;;;;;;;14.72;51.18;100732.31;4807435;29;20142;-71
2023/09/24 03:59:57;;;;;;;12.60;7.32;;;;;;;14.89;50.83;100747.00;4821472;29;20520;-71
2023/09/24 04:02:26;;;;;;;12.25;6.72;;;;;;;14.98;51.27;100746.00;4790529;29;20042;-71
2023/09/24 04:04:53;;;;;;;13.32;6.43;;;;;;;14.96;51.24;100729.44;4805244;29;20079;-70
2023/09/24 04:07:20;;;;;;;14.23;7.43;;;;;;;15.16;50.85;100747.50;4793558;29;20082;-70
2023/09/24 04:09:50;;;;;;;13.80;7.15;;;;;;;15.14;50.72;100744.94;4805453;29;20042;-71
2023/09/24 04:12:16;;;;;;;13.80;8.68;;;;;;;14.99;50.77;100725.00;4821036;29;20038;-71
2023/09/24 04:14:42;;;;;;;12.38;7.60;;;;;;;15.01;50.69;100738.97;4806869;29;20050;-72
2023/09/24 04:17:09;;;;;;;13.30;7.00;;;;;;;15.10;50.81;100745.00;4806890;29;20303;-72
2023/09/24 04:19:36;;;;;;;11.93;5.80;;;;;;;15.34;50.85;100728.06;4794126;29;20045;-70
2023/09/24 04:22:02;;;;;;;9.43;6.55;;;;;;;15.67;50.00;100733.69;4799383;29;20057;-71
2023/09/24 04:24:28;;;;;;;11.77;5.97;;;;;;;15.69;50.02;100717.94;4809913;29;20129;-70
2023/09/24 04:26:54;;;;;;;10.20;6.57;;;;;;;15.92;49.90;100741.22;4810068;29;20156;-71
2023/09/24 04:29:21;;;;;;;10.57;5.55;;;;;;;15.97;48.80;100728.91;4809472;29;20081;-70
2023/09/24 04:31:47;;;;;;;10.43;5.55;;;;;;;15.76;48.91;100703.84;4825038;29;20050;-72
2023/09/24 04:34:13;;;;;;;10.85;5.82;;;;;;;16.12;49.05;100735.66;4808449;29;20508;-71
2023/09/24 04:36:40;;;;;;;9.25;4.93;;;;;;;16.66;48.79;100733.81;4809212;29;20343;-72
2023/09/24 04:39:11;;;;;;;9.68;5.38;;;;;;;17.12;47.58;100732.03;4824535;29;20141;-72
2023/09/24 04:41:43;;;;;;;9.95;5.35;;;;;;;18.29;46.50;100724.94;4810073;29;20130;-71
2023/09/24 04:44:09;;;;;;;;;;;;;;;19.34;44.62;100729.91;4808712;29;20050;-72
2023/09/24 04:46:36;;;;;;;11.13;5.00;;;;;;;19.33;44.01;100744.00;4823212;29;20628;-70
2023/09/24 04:49:05;;;;;;;7.90;5.05;;;;;;;19.93;43.36;100716.66;4809001;29;20061;-70
2023/09/24 04:51:33;;;;;;;10.23;5.43;;;;;;;20.62;42.16;100726.63;4808445;29;20074;-70
2023/09/24 04:54:00;;;;;;;14.20;5.20;;;;;;;21.61;40.82;100724.72;4808718;29;20048;-70
2023/09/24 04:56:30;;;;;;;12.30;5.53;;;;;;;22.12;39.57;100720.78;4807580;29;20053;-70
2023/09/24 04:58:56;;;;;;;6.25;4.93;;;;;;;22.04;38.48;100725.59;4808193;29;20126;-71
2023/09/24 05:01:22;;;;;;;8.77;5.15;;;;;;;21.77;38.09;100711.69;4808249;29;20053;-71
2023/09/24 05:03:50;;;;;;;13.60;5.30;;;;;;;22.05;38.35;100737.03;4807881;29;20565;-70
2023/09/24 05:06:18;;;;;;;8.85;4.90;;;;;;;21.86;37.27;100726.31;4824534;29;20126;-71
2023/09/24 05:08:45;;;;;;;10.65;5.20;;;;;;;21.44;37.19;100747.38;4793209;29;20571;-71
2023/09/24 05:11:12;;;;;;;14.00;5.00;;;;;;;20.84;37.78;100752.31;4797179;29;21452;-71
2023/09/24 05:13:40;;;;;;;11.30;5.05;;;;;;;20.15;38.18;100727.34;4807505;29;20046;-71
2023/09/24 05:16:08;;;;;;;9.40;4.75;;;;;;;19.78;38.78;100737.31;4808010;29;20042;-70
2023/09/24 05:18:34;;;;;;;8.55;4.70;;;;;;;19.53;39.09;100756.56;4807542;29;20058;-73
2023/09/24 05:21:03;;;;;;;8.43;5.03;;;;;;;19.13;39.51;100733.19;4809976;29;20038;-71
2023/09/24 05:23:29;;;;;;;8.00;4.38;;;;;;;19.10;39.82;100760.50;4808594;29;20119;-71
2023/09/24 05:25:55;;;;;;;9.43;4.63;;;;;;;18.74;40.25;100734.28;4808023;29;20105;-71
2023/09/24 05:28:21;;;;;;;8.30;4.97;;;;;;;18.86;40.46;100769.97;4798141;29;21790;-70
2023/09/24 05:30:53;;;;;;;9.70;5.38;;;;;;;18.77;40.52;100764.03;4810135;29;20053;-73
2023/09/24 05:33:19;;;;;;;8.80;4.93;;;;;;;18.70;40.61;100764.25;4810280;29;20142;-73
2023/09/24 05:35:54;;;;;;;9.23;4.63;;;;;;;18.55;40.68;100761.13;4807368;29;20058;-74
2023/09/24 05:38:21;;;;;;;12.70;5.40;;;;;;;18.30;41.02;100745.13;4810315;29;20141;-74
2023/09/24 05:40:47;;;;;;;7.35;4.65;;;;;;;18.38;41.47;100753.66;4811040;29;20864;-76
2023/09/24 05:43:14;;;;;;;8.38;5.22;;;;;;;19.35;40.85;100751.88;4794154;29;20111;-78
2023/09/24 05:45:48;;;;;;;7.60;4.63;;;;;;;20.42;39.58;100761.69;4809504;29;20042;-77
2023/09/24 05:48:15;;;;;;;10.45;4.85;;;;;;;21.64;37.67;100706.91;4816361;29;20038;-72
2023/09/24 05:50:45;;;;;;;8.40;5.20;;;;;;;22.95;35.75;100736.66;4797933;29;20413;-75
2023/09/24 05:53:12;;;;;;;11.43;5.43;;;;;;;23.62;34.39;100669.81;4812147;29;20047;-75
2023/09/24 05:55:39;;;;;;;8.80;5.30;;;;;;;25.10;33.80;100758.84;4799700;29;20061;-75
2023/09/24 05:58:08;;;;;;;8.38;5.03;;;;;;;25.80;31.80;100736.34;4827100;29;20073;-74
2023/09/24 06:00:37;;;;;;;10.38;5.72;;;;;;;27.03;30.43;100709.34;4813207;29;20047;-74
2023/09/24 06:03:04;;;;;;;11.37;5.33;;;;;;;28.08;28.86;100735.53;4816623;29;20053;-75
2023/09/24 06:05:30;;;;;;;11.23;5.50;;;;;;;29.05;28.07;100722.59;4813041;29;20129;-77
2023/09/24 06:07:57;;;;;;;9.82;6.15;;;;;;;29.97;26.91;100730.19;4812392;29;20038;-73
2023/09/24 06:10:23;;;;;;;10.02;5.70;;;;;;;30.90;25.04;100727.50;4793446;29;20042;-76
2023/09/24 06:12:50;;;;;;;9.23;5.43;;;;;;;31.58;24.58;100694.25;4812620;29;20090;-73
2023/09/24 06:15:17;;;;;;;13.93;5.53;;;;;;;32.35;23.38;100720.03;4809863;29;20125;-71
2023/09/24 06:17:44;;;;;;;9.10;4.95;;;;;;;32.61;22.48;100673.81;4829326;29;20054;-72
2023/09/24 06:20:12;;;;;;;9.13;4.78;;;;;;;33.16;21.81;100707.59;4808584;29;20580;-74
2023/09/24 06:22:38;;;;;;;6.93;5.35;;;;;;;33.32;21.22;100724.09;4813860;29;20034;-79
2023/09/24 06:25:05;;;;;;;9.98;5.28;;;;;;;33.13;21.20;100670.16;4817142;29;20058;-76
2023/09/24 06:27:31;;;;;;;11.02;5.85;;;;;;;33.41;20.51;100727.81;4816662;29;20335;-79
2023/09/24 06:29:57;;;;;;;6.75;4.80;;;;;;;33.60;21.11;100732.38;4801093;29;20675;-77
2023/09/24 06:32:23;;;;;;;7.22;5.63;;;;;;;33.44;20.51;100710.47;4815343;29;20042;-79
2023/09/24 06:34:52;;;;;;;9.00;5.45;;;;;;;33.70;20.62;100709.91;4812406;29;20157;-76
2023/09/24 06:37:19;;;;;;;12.23;5.95;;;;;;;34.06;19.23;100681.34;4814072;29;20042;-75
2023/09/24 06:39:45;;;;;;;8.82;5.40;;;;;;;34.94;19.41;100703.63;4801721;29;20521;-76
2023/09/24 06:42:11;;;;;;;7.60;5.15;;;;;;;35.84;18.38;100703.69;4817102;29;20038;-77
2023/09/24 06:44:37;;;;;;;9.48;5.45;;;;;;;36.05;18.27;100697.09;4789238;29;20450;-76
2023/09/24 06:47:03;;;;;;;11.07;5.50;;;;;;;36.75;17.75;100716.94;4812563;29;20533;-74
2023/09/24 06:49:29;;;;;;;16.25;6.00;;;;;;;36.59;17.25;100688.78;4815946;29;20050;-76
2023/09/24 06:51:56;;;;;;;26.65;7.07;;;;;;;37.34;17.19;100689.84;4815181;29;20042;-77
2023/09/24 06:54:22;;;;;;;9.48;5.72;;;;;;;37.65;16.50;100699.19;4783442;29;20498;-78
2023/09/24 06:56:48;;;;;;;12.48;5.45;;;;;;;37.05;16.97;100717.41;4812593;29;20042;-73
2023/09/24 06:59:14;;;;;;;9.77;5.88;;;;;;;36.12;16.63;100684.63;4798530;29;20099;-70
2023/09/24 07:01:41;;;;;;;9.15;6.45;;;;;;;36.41;17.07;100612.13;4806601;29;20079;-71
2023/09/24 07:04:07;;;;;;;10.10;5.80;;;;;;;38.20;15.91;100645.19;4792890;29;20424;-72
2023/09/24 07:06:33;;;;;;;10.65;5.40;;;;;;;38.24;15.42;100673.69;4806692;29;20073;-77
2023/09/24 07:09:00;;;;;;;10.85;5.57;;;;;;;38.14;15.42;100698.34;4824210;29;20035;-72
2023/09/24 07:11:31;;;;;;;11.10;6.47;;;;;;;38.16;16.13;100695.44;4807202;29;20053;-80
2023/09/24 07:13:57;;;;;;;8.02;5.70;;;;;;;38.81;15.24;100653.59;4795271;29;20046;-71
2023/09/24 07:16:26;;;;;;;11.18;6.20;;;;;;;39.66;14.27;100669.16;4809660;29;20058;-73
2023/09/24 07:18:53;;;;;;;9.00;5.47;;;;;;;39.49;14.22;100680.19;4821303;29;20078;-74
2023/09/24 07:21:22;;;;;;;9.23;5.45;;;;;;;39.06;14.29;100675.22;4806706;29;20137;-74
2023/09/24 07:23:50;;;;;;;9.45;5.93;;;;;;;38.83;14.80;100632.50;4807343;29;20066;-72
2023/09/24 07:26:17;;;;;;;9.23;5.55;;;;;;;39.62;14.17;100699.44;4807497;29;20045;-72
2023/09/24 07:28:44;;;;;;;8.48;5.68;;;;;;;39.44;14.29;100658.97;4803599;29;20048;-72
2023/09/24 07:31:19;;;;;;;8.90;5.15;;;;;;;40.79;13.84;100691.78;4806392;29;20677;-76
2023/09/24 07:33:46;;;;;;;8.48;5.68;;;;;;;42.39;12.86;100698.03;4811180;29;20038;-71
2023/09/24 07:36:13;;;;;;;11.50;6.50;;;;;;;42.73;12.73;100693.53;4794482;29;20066;-72
2023/09/24 07:38:40;;;;;;;8.45;6.28;;;;;;;42.23;12.65;100697.28;4813126;29;20086;-73
2023/09/24 07:41:07;;;;;;;11.73;5.75;;;;;;;41.91;12.22;100647.69;4798758;29;20521;-74
2023/09/24 07:43:38;;;;;;;13.05;6.00;;;;;;;41.66;12.82;100626.28;4796320;29;20052;-71
2023/09/24 07:46:06;;;;;;;10.75;6.15;;;;;;;42.64;12.43;100671.00;4812125;29;20108;-71
2023/09/24 07:48:33;;;;;;;11.88;6.20;;;;;;;43.22;11.88;100682.53;4816924;29;20076;-71
2023/09/24 07:50:59;;;;;;;12.77;6.47;;;;;;;43.15;12.01;100652.41;4787110;29;20050;-69
2023/09/24 07:53:25;;;;;;;11.65;7.38;;;;;;;43.77;12.25;100654.97;4795028;29;20050;-76
2023/09/24 07:55:57;;;;;;;13.18;6.53;;;;;;;43.78;11.75;100693.13;4804981;29;20043;-72
2023/09/24 07:58:24;;;;;;;12.27;6.30;;;;;;;42.93;11.69;100684.56;4815678;29;20058;-72
2023/09/24 08:00:52;;;;;;;10.35;6.30;;;;;;;42.10;12.02;100675.34;4805460;29;20042;-71
2023/09/24 08:03:19;;;;;;;10.18;6.07;;;;;;;41.12;12.36;100704.13;4816385;29;20042;-71
2023/09/24 08:05:45;;;;;;;9.65;6.53;;;;;;;41.33;12.57;100665.06;4799854;29;20035;-73
2023/09/24 08:08:12;;;;;;;10.25;6.60;;;;;;;41.66;12.54;100669.97;4817211;29;20188;-69
2023/09/24 08:10:38;;;;;;;11.10;5.97;;;;;;;41.49;12.91;100671.28;4814863;29;20049;-71
2023/09/24 08:13:05;;;;;;;9.57;5.70;;;;;;;42.39;12.25;100667.97;4814421;29;20050;-72
2023/09/24 08:15:31;;;;;;;10.40;6.85;;;;;;;43.77;11.28;100644.84;4799194;29;20089;-72
2023/09/24 08:17:57;;;;;;;9.38;6.65;;;;;;;44.64;10.80;100662.94;4815550;29;20050;-74
2023/09/24 08:20:23;;;;;;;8.40;6.28;;;;;;;43.77;10.89;100647.59;4802303;29;20046;-74
2023/09/24 08:22:49;;;;;;;13.15;6.30;;;;;;;43.51;11.47;100664.03;4814818;29;20537;-72
2023/09/24 08:25:15;;;;;;;9.48;6.43;;;;;;;43.93;11.40;100659.16;4812656;29;20050;-71
2023/09/24 08:27:41;;;;;;;12.32;6.63;;;;;;;43.48;11.40;100657.06;4818835;29;20039;-72
2023/09/24 08:30:07;;;;;;;10.18;7.05;;;;;;;42.55;11.52;100634.78;4816861;29;20390;-72
2023/09/24 08:32:33;;;;;;;9.77;6.50;;;;;;;42.26;11.69;100646.84;4815852;29;20518;-74
2023/09/24 08:34:59;;;;;;;7.50;6.22;;;;;;;42.18;11.62;100671.59;4815197;29;20051;-76
2023/09/24 08:37:25;;;;;;;11.15;6.43;;;;;;;42.06;12.46;100658.50;4815986;29;20046;-76
2023/09/24 08:39:52;;;;;;;10.50;6.00;;;;;;;42.15;11.49;100649.09;4821781;29;20467;-78
2023/09/24 08:42:19;;;;;;;9.70;6.13;;;;;;;42.62;11.61;100656.66;4794708;29;20046;-76
2023/09/24 08:45:03;;;;;;;9.98;6.65;;;;;;;42.83;11.68;100657.59;4817294;29;20043;-76
2023/09/24 08:47:32;;;;;;;6.82;6.22;;;;;;;41.78;12.05;100653.06;4787414;29;20043;-77
2023/09/24 08:50:04;;;;;;;12.13;6.10;;;;;;;41.67;11.90;100586.19;4813988;29;20046;-78
2023/09/24 08:52:39;;;;;;;10.63;6.95;;;;;;;42.16;11.74;100641.75;4813884;29;20586;-76
2023/09/24 08:55:06;;;;;;;12.30;6.38;;;;;;;42.59;11.89;100636.06;4817027;29;20181;-79
2023/09/24 08:57:36;;;;;;;8.35;5.63;;;;;;;42.65;12.00;100590.63;4801071;29;20082;-74
2023/09/24 09:00:09;;;;;;;7.78;5.65;;;;;;;41.30;11.70;100607.28;4787647;29;20049;-75
2023/09/24 09:02:44;;;;;;;10.52;5.60;;;;;;;41.04;12.86;100631.41;4803777;29;20119;-74
2023/09/24 09:05:22;;;;;;;9.18;5.90;;;;;;;41.01;13.25;100634.50;4816529;29;20243;-74
2023/09/24 09:07:56;;;;;;;10.93;5.68;;;;;;;40.29;13.34;100647.06;4814192;29;20505;-75
2023/09/24 09:10:27;;;;;;;9.77;5.75;;;;;;;39.38;13.59;100634.38;4818014;29;20121;-78
2023/09/24 09:13:15;;;;;;;10.18;5.63;;;;;;;38.72;14.13;100616.59;4817929;29;20047;-73
2023/09/24 09:15:43;;;;;;;7.95;5.15;;;;;;;38.13;14.12;100650.47;4812748;29;20146;-75
2023/09/24 09:18:24;;;;;;;7.38;5.18;;;;;;;36.68;15.06;100621.06;4787145;29;20038;-74
2023/09/24 09:20:58;;;;;;;9.77;5.82;;;;;;;36.19;15.52;100582.75;4815916;29;20050;-76
2023/09/24 09:23:31;;;;;;;7.55;4.75;;;;;;;36.69;15.97;100620.88;4815075;29;20070;-75
2023/09/24 09:25:57;;;;;;;8.85;5.60;;;;;;;36.50;15.58;100629.31;4798316;29;20424;-74
2023/09/24 09:28:31;;;;;;;6.85;5.07;;;;;;;35.30;16.66;100665.84;4835568;29;20049;-79
2023/09/24 09:31:17;;;;;;;9.93;4.70;;;;;;;34.53;17.16;100644.53;4825638;29;20046;-78
2023/09/24 09:33:44;;;;;;;9.93;5.28;;;;;;;34.16;17.71;100640.00;4823674;29;20050;-74
2023/09/24 09:36:27;;;;;;;9.20;6.10;;;;;;;34.76;17.74;100647.66;4793332;29;20142;-81
2023/09/24 09:38:55;;;;;;;13.73;6.63;;;;;;;35.43;17.03;100623.00;4789685;29;20093;-73
2023/09/24 09:41:23;;;;;;;8.35;4.78;;;;;;;35.35;16.89;100641.88;4816657;29;20042;-75
2023/09/24 09:43:52;;;;;;;13.57;7.07;;;;;;;35.43;16.87;100623.00;4817870;29;20043;-74
2023/09/24 09:46:20;;;;;;;11.52;5.20;;;;;;;35.19;17.04;100626.34;4820235;29;20077;-73
2023/09/24 09:48:57;;;;;;;9.52;4.57;;;;;;;34.59;17.36;100613.38;4813440;29;20042;-71
2023/09/24 09:51:25;;;;;;;10.50;5.40;;;;;;;34.06;18.01;100611.16;4826983;29;20734;-69
2023/09/24 09:53:54;;;;;;;11.80;5.40;;;;;;;34.18;17.92;100622.63;4813667;29;20048;-69
2023/09/24 09:56:23;;;;;;;8.27;4.53;;;;;;;34.11;17.66;100635.00;4802362;29;20050;-68
2023/09/24 09:58:51;;;;;;;7.10;4.70;;;;;;;33.39;18.27;100580.66;4803938;29;20054;-69
2023/09/24 10:01:20;;;;;;;10.45;4.82;;;;;;;33.47;18.59;100616.69;4800212;29;20047;-69
2023/09/24 10:03:50;;;;;;;10.40;4.35;;;;;;;33.51;18.92;100613.72;4816123;29;20046;-69
2023/09/24 10:06:16;;;;;;;7.72;4.40;;;;;;;33.63;18.98;100617.94;4817111;29;20064;-70
2023/09/24 10:08:45;;;;;;;9.43;4.70;;;;;;;33.22;18.73;100609.97;4817740;29;20517;-68
2023/09/24 10:11:32;;;;;;;15.20;5.00;;;;;;;32.54;19.34;100627.72;4814926;29;20502;-70
2023/09/24 10:14:03;;;;;;;9.30;4.57;;;;;;;31.86;19.62;100633.63;4832508;29;20061;-68
2023/09/24 10:16:32;;;;;;;9.82;4.43;;;;;;;30.92;20.37;100607.34;4820266;29;20046;-69
2023/09/24 10:19:09;;;;;;;6.80;4.70;;;;;;;30.49;20.87;100607.16;4818497;29;20156;-68
2023/09/24 10:21:42;;;;;;;7.07;4.15;;;;;;;30.09;21.61;100636.31;4803110;29;20046;-69
2023/09/24 10:24:14;;;;;;;6.80;4.50;;;;;;;29.64;21.68;100629.00;4815811;29;20057;-70
2023/09/24 10:27:13;;;;;;;9.45;4.78;;;;;;;28.75;22.46;100533.75;4786742;29;20486;-69
2023/09/24 10:29:45;;;;;;;6.38;4.25;;;;;;;28.93;22.45;100627.91;4799560;29;20050;-69
2023/09/24 10:32:12;;;;;;;15.32;5.00;;;;;;;28.53;23.44;100622.75;4813706;29;20054;-73
2023/09/24 10:34:54;;;;;;;8.70;4.47;;;;;;;28.29;23.77;100606.66;4814770;29;20057;-69
2023/09/24 10:37:30;;;;;;;11.45;5.25;;;;;;;28.21;23.66;100589.31;4814324;29;20054;-69
2023/09/24 10:39:59;;;;;;;12.77;6.28;;;;;;;28.07;24.11;100610.81;4815135;29;20046;-70
2023/09/24 10:42:28;;;;;;;6.78;4.93;;;;;;;27.93;24.10;100585.03;4825698;29;20050;-71
2023/09/24 10:45:06;;;;;;;6.47;4.10;;;;;;;27.82;24.08;100612.50;4795836;29;20070;-69
2023/09/24 10:47:40;;;;;;;11.63;4.90;;;;;;;27.35;24.64;100569.34;4813062;29;20399;-70
2023/09/24 10:50:18;;;;;;;6.20;4.50;;;;;;;27.36;24.64;100585.25;4814821;29;20042;-70
2023/09/24 10:53:01;;;;;;;9.02;4.35;;;;;;;27.30;25.28;100599.00;4808448;29;20042;-66
2023/09/24 10:55:28;;;;;;;9.55;4.60;;;;;;;27.26;25.54;100586.81;4813693;29;20885;-68
2023/09/24 10:57:56;;;;;;;7.10;4.40;;;;;;;27.03;25.68;100593.69;4809202;29;20091;-69
2023/09/24 11:00:25;;;;;;;9.93;4.82;;;;;;;26.81;26.05;100591.59;4792747;29;20046;-66
2023/09/24 11:02:59;;;;;;;7.68;4.47;;;;;;;26.57;26.05;100562.81;4821255;29;20590;-71
2023/09/24 11:05:26;;;;;;;4.70;3.97;;;;;;;26.63;25.83;100585.56;4796480;29;20648;-68
2023/09/24 11:07:53;;;;;;;9.30;4.57;;;;;;;26.54;26.83;100568.34;4807872;29;20053;-69
2023/09/24 11:10:24;;;;;;;6.07;4.43;;;;;;;26.46;26.96;100593.69;4796992;29;20046;-66
2023/09/24 11:12:56;;;;;;;6.63;3.95;;;;;;;26.16;26.83;100562.66;4819842;29;20084;-67
2023/09/24 11:15:24;;;;;;;8.48;4.72;;;;;;;26.05;27.18;100573.13;4799227;29;20047;-71
2023/09/24 11:17:51;;;;;;;9.32;4.05;;;;;;;25.88;27.52;100568.81;4810811;29;20039;-71
2023/09/24 11:20:20;;;;;;;14.50;4.50;;;;;;;25.71;27.61;100556.50;4829054;29;20118;-72
2023/09/24 11:23:11;;;;;;;5.75;4.07;;;;;;;25.86;27.47;100586.69;4801542;29;20045;-71
2023/09/24 11:25:38;;;;;;;9.00;3.95;;;;;;;25.54;27.37;100533.56;4813937;29;20046;-72
2023/09/24 11:28:07;;;;;;;8.23;3.83;;;;;;;25.91;27.77;100573.13;4815415;29;20042;-71
2023/09/24 11:30:48;;;;;;;6.13;3.60;;;;;;;25.73;27.21;100540.44;4797431;29;20054;-73